Aérodrome :
LOGIN :

S'inscrire | Disclaimer

   EN    FR    IT 

 










Légende :    VFR   VFR Marginal   IFR   IFR Intensif   IFR Très Intensif
Visi : 
Plafond : 
>= 8 km
>= 3000ft
5 à 8 km
1000 à 3000 ft
1500m à 5 km
500 à 1000 ft
800 à 1500m
200 à 500 ft
< 800m
< 200 ft
Symboles :   Orages  Brouillard  Fortes neiges  Fortes précipitations  Vent > 20 kt
SIGMETs :   Divers  Orages  Givrage  Turbulence  Onde Orograph.  Cendres Volcan.







- Altitude de l'aérodrome : 538 ft
- Code IATA : TNF
- Voir les cartes d'approche


LFPN - Toussus Le Noble

DERNIER METAR :
  • 150230Z AUTO 00000KT 9999 BKN028 BKN130 M03/M06 Q1023

METARs EXPIRÉS :
  • 150200Z AUTO 13003KT 9999 FEW027 BKN140 M03/M06 Q1023
  • 150130Z AUTO 13002KT 9999 BKN028 BKN140 M02/M06 Q1023
  • 150100Z AUTO /////KT 9999 FEW029 BKN140 M02/M06 Q1023
  • 150030Z AUTO 11002KT 9999 BKN029 OVC140 M02/M06 Q1023
  • 150000Z AUTO 15002KT 9999 OVC029 M01/M06 Q1023

TAF TAF LFPN
Valide du 14 à 18h jusqu'au 15 à 03h UTC


141700Z 1418/1503 03005KT 9999 BKN035
ATIS : +33 1 39 56 54 70
Pas de NOTAMs connus pour ce terrain.



MET'MAP, la Météo Aéronautique d'un coup d'oeil ! - Copyright ORBIFLY Décembre 2007 - Disclaimer

ORBIFLY MET'MAP TEAM :

Programmation & Développement : Alexandra Zaïnal
Conception & Développement : Baudouin d'Aumeries
Co-Programmation & Développement : Marc-Olivier Méhu
Soutien technique & logistique : Manuel Goepfert

Contact : metmap@orbifly.com




SOURCES & CREDITS :

   NOAA